aviador You're here:

CYZE Decoded Metar

GORE BAY in ON, CANADA
Report Time2018-05-20 22:00:00
UTC Time2018-05-20 23:10:29
Flight Rules Old
Wind240° at 08 kt
W.Decomp.*RWY 23: 7.6 kt HW 2.6 kt RCW
RWY 29: 6.0 kt HW 5.2 kt LCW
W.Rank240° ranks 24
Current wind is below 240° avg. (9.4)
Visibility9999 m
Phenomena:N/A
Clouds:N/A
Expected CloudBase > 4,800 ft AGL from Temp-Dew spread
CeilingNone
Temp14°C (ISA 0)
Dew Point02°C (44% RH)
AAT9.4°C
QNH1021 hPa
Density Alt492 ft
Elevation633 ft
Report Wrong Elevation
Raw Report
CYZE 202200Z AUTO 24008KT 9SM CLR 14/02 A3016 RMK SLP219=

Extra information for CYZE:More info

Metar Taf Metar & Taf Last 4 Metars F.Rules Stats Wind Profile Meteogram Temp Stats Airport Information Weather charts Add Link Nearby VenuesMetar ALERT Operation Metar Decoded Social comments